createdAt,value
2023-03-06T00:01:51.716Z,23.95
2023-03-06T00:03:55.198Z,22.98
2023-03-06T00:05:58.011Z,22.77
2023-03-06T00:07:59.504Z,28.13
2023-03-06T00:10:01.319Z,22.55
2023-03-06T00:12:02.874Z,24.20
2023-03-06T00:14:04.306Z,24.23
2023-03-06T00:16:07.060Z,25.50
2023-03-06T00:18:08.798Z,29.73
2023-03-06T00:20:14.291Z,39.03
2023-03-06T00:22:16.592Z,42.00
2023-03-06T00:24:18.055Z,37.80
2023-03-06T00:26:19.731Z,38.05
2023-03-06T00:28:21.303Z,40.65
2023-03-06T00:30:24.434Z,40.22
2023-03-06T00:32:27.210Z,42.72
2023-03-06T00:34:28.667Z,41.45
2023-03-06T00:36:30.170Z,39.42
2023-03-06T00:38:33.409Z,40.53
2023-03-06T00:40:34.902Z,40.72
2023-03-06T00:42:36.492Z,40.13
2023-03-06T00:44:38.312Z,41.90
2023-03-06T00:46:39.681Z,37.50
2023-03-06T00:48:41.259Z,36.42
2023-03-06T00:50:42.676Z,35.97
2023-03-06T00:52:44.044Z,36.58
2023-03-06T00:54:45.442Z,36.40
2023-03-06T00:56:46.892Z,36.33
2023-03-06T00:58:48.326Z,33.60
2023-03-06T01:00:49.815Z,34.72
2023-03-06T01:02:53.548Z,34.92
2023-03-06T01:04:55.152Z,34.08
2023-03-06T01:06:56.629Z,36.65
2023-03-06T01:08:58.034Z,34.28
2023-03-06T01:10:59.522Z,34.60
2023-03-06T01:13:00.901Z,33.90
2023-03-06T01:15:02.523Z,31.38
2023-03-06T01:17:04.017Z,35.85
2023-03-06T01:19:05.438Z,31.00
2023-03-06T01:21:07.249Z,30.77
2023-03-06T01:23:08.691Z,34.70
2023-03-06T01:25:10.765Z,33.00
2023-03-06T01:27:12.200Z,33.95
2023-03-06T01:29:13.591Z,36.88
2023-03-06T01:31:15.095Z,34.78
2023-03-06T01:33:17.000Z,33.28
2023-03-06T01:35:18.673Z,39.13
2023-03-06T01:37:20.193Z,35.75
2023-03-06T01:39:21.626Z,35.63
2023-03-06T01:41:23.045Z,39.30
2023-03-06T01:43:24.378Z,34.30
2023-03-06T01:45:25.790Z,37.05
2023-03-06T01:47:27.666Z,39.67
2023-03-06T01:49:34.899Z,36.33
2023-03-06T01:53:43.216Z,36.00
2023-03-06T01:55:44.967Z,32.88
2023-03-06T01:57:54.559Z,40.40
2023-03-06T02:00:03.647Z,36.08
2023-03-06T02:02:07.263Z,29.02
2023-03-06T02:04:10.108Z,36.67
2023-03-06T02:06:11.882Z,34.83
2023-03-06T02:08:16.362Z,38.20
2023-03-06T02:10:20.385Z,33.67
2023-03-06T02:12:22.852Z,36.55
2023-03-06T02:14:24.344Z,32.17
2023-03-06T02:16:29.266Z,30.27
2023-03-06T02:18:30.891Z,32.25
2023-03-06T02:20:39.998Z,29.52
2023-03-06T02:22:56.333Z,32.58
2023-03-06T02:25:10.974Z,27.65
2023-03-06T02:27:14.654Z,27.40
2023-03-06T02:29:23.939Z,29.52
2023-03-06T02:31:28.540Z,27.17
2023-03-06T02:33:30.217Z,31.08
2023-03-06T02:35:34.969Z,25.55
2023-03-06T02:37:36.431Z,31.63
2023-03-06T02:39:44.652Z,24.05
2023-03-06T02:41:46.050Z,29.67
2023-03-06T02:43:49.121Z,26.73
2023-03-06T02:45:52.227Z,26.35
2023-03-06T02:47:53.675Z,23.48
2023-03-06T02:49:55.274Z,22.77
2023-03-06T02:51:56.680Z,21.85
2023-03-06T02:53:58.084Z,21.55
2023-03-06T02:55:59.873Z,24.98
2023-03-06T02:58:02.283Z,24.25
2023-03-06T03:00:04.990Z,26.15
2023-03-06T03:02:06.802Z,22.40
2023-03-06T03:04:08.570Z,21.85
2023-03-06T03:06:10.341Z,22.90
2023-03-06T03:08:11.817Z,23.00
2023-03-06T03:10:13.694Z,22.38
2023-03-06T03:12:15.124Z,22.30
2023-03-06T03:14:16.683Z,23.38
2023-03-06T03:16:18.166Z,21.02
2023-03-06T03:18:19.607Z,23.77
2023-03-06T03:20:22.114Z,22.20
2023-03-06T03:22:23.644Z,24.73
2023-03-06T03:24:25.208Z,22.92
2023-03-06T03:26:26.810Z,21.90
2023-03-06T03:28:28.296Z,23.85
2023-03-06T03:30:29.725Z,22.48
2023-03-06T03:32:31.149Z,22.85
2023-03-06T03:34:32.793Z,23.40
2023-03-06T03:36:34.524Z,19.70
2023-03-06T03:38:36.036Z,18.15
2023-03-06T03:40:38.718Z,24.80
2023-03-06T03:42:40.164Z,24.48
2023-03-06T03:44:41.578Z,23.95
2023-03-06T03:46:43.490Z,24.30
2023-03-06T03:48:44.983Z,25.95
2023-03-06T03:50:46.354Z,23.65
2023-03-06T03:52:47.826Z,24.88
2023-03-06T03:54:49.211Z,25.83
2023-03-06T03:56:50.682Z,24.85
2023-03-06T03:58:52.550Z,23.83
2023-03-06T04:00:54.023Z,25.30
2023-03-06T04:02:55.406Z,23.30
2023-03-06T04:04:56.830Z,22.52
2023-03-06T04:06:58.307Z,25.33
2023-03-06T04:08:59.686Z,23.80
2023-03-06T04:11:01.136Z,27.77
2023-03-06T04:13:02.554Z,26.15
2023-03-06T04:15:07.992Z,23.95
2023-03-06T04:17:09.432Z,25.63
2023-03-06T04:19:11.660Z,26.80
2023-03-06T04:21:13.272Z,24.10
2023-03-06T04:23:15.093Z,28.65
2023-03-06T04:25:16.591Z,26.85
2023-03-06T04:27:18.353Z,28.30
2023-03-06T04:29:19.790Z,29.33
2023-03-06T04:31:21.433Z,25.27
2023-03-06T04:33:22.863Z,29.58
2023-03-06T04:35:24.344Z,32.47
2023-03-06T04:37:26.892Z,28.98
2023-03-06T04:39:28.331Z,32.25
2023-03-06T04:41:30.617Z,31.35
2023-03-06T04:43:32.214Z,33.72
2023-03-06T04:45:34.404Z,31.05
2023-03-06T04:47:35.795Z,28.45
2023-03-06T04:49:37.492Z,31.85
2023-03-06T04:51:38.886Z,31.83
2023-03-06T04:53:40.338Z,30.33
2023-03-06T04:55:41.760Z,30.02
2023-03-06T04:57:44.988Z,29.48
2023-03-06T04:59:46.410Z,27.20
2023-03-06T05:01:47.877Z,27.50
2023-03-06T05:03:49.924Z,28.40
2023-03-06T05:05:51.396Z,27.15
2023-03-06T05:07:54.080Z,26.10
2023-03-06T05:09:55.569Z,28.35
2023-03-06T05:11:56.946Z,26.65
2023-03-06T05:13:58.355Z,25.52
2023-03-06T05:16:04.620Z,25.02
2023-03-06T05:18:06.034Z,23.63
2023-03-06T05:20:09.659Z,22.50
2023-03-06T05:22:11.187Z,25.52
2023-03-06T05:24:12.905Z,25.38
2023-03-06T05:26:15.031Z,24.13
2023-03-06T05:28:16.441Z,24.00
2023-03-06T05:30:18.642Z,21.05
2023-03-06T05:32:20.645Z,22.88
2023-03-06T05:34:22.070Z,22.98
2023-03-06T05:36:23.539Z,22.38
2023-03-06T05:38:24.997Z,23.63
2023-03-06T05:40:26.381Z,20.58
2023-03-06T05:42:30.988Z,21.25
2023-03-06T05:44:34.281Z,23.20
2023-03-06T05:46:35.753Z,21.27
2023-03-06T05:48:37.581Z,22.48
2023-03-06T05:50:39.437Z,29.77
2023-03-06T05:52:41.113Z,27.00
2023-03-06T05:54:43.021Z,25.58
2023-03-06T05:56:44.411Z,25.88
2023-03-06T05:58:46.467Z,27.02
2023-03-06T06:00:47.856Z,25.30
2023-03-06T06:02:49.325Z,28.15
2023-03-06T06:04:50.893Z,27.80
2023-03-06T06:06:56.555Z,27.27
2023-03-06T06:08:57.920Z,28.75
2023-03-06T06:10:59.887Z,25.77
2023-03-06T06:13:01.356Z,27.02
2023-03-06T06:15:02.939Z,24.25
2023-03-06T06:17:04.745Z,24.77
2023-03-06T06:19:06.222Z,25.80
2023-03-06T06:21:09.215Z,30.45
2023-03-06T06:23:11.210Z,24.85
2023-03-06T06:25:12.966Z,28.58
2023-03-06T06:27:14.366Z,29.42
2023-03-06T06:29:15.833Z,24.75
2023-03-06T06:31:17.303Z,25.25
2023-03-06T06:33:18.688Z,24.10
2023-03-06T06:35:20.277Z,24.40
2023-03-06T06:37:21.709Z,24.70
2023-03-06T06:39:24.250Z,23.92
2023-03-06T06:41:46.134Z,26.23
2023-03-06T06:43:48.234Z,26.40
2023-03-06T06:45:50.458Z,25.77
2023-03-06T06:47:52.182Z,24.30
2023-03-06T06:49:55.583Z,27.85
2023-03-06T06:51:57.309Z,26.55
2023-03-06T06:53:59.117Z,27.40
2023-03-06T06:56:00.683Z,24.05
2023-03-06T06:58:02.125Z,29.55
2023-03-06T07:00:05.000Z,24.20
2023-03-06T07:02:07.102Z,26.77
2023-03-06T07:04:11.604Z,29.23
2023-03-06T07:06:13.114Z,29.73
2023-03-06T07:08:14.486Z,27.52
2023-03-06T07:10:16.039Z,30.90
2023-03-06T07:12:17.467Z,25.08
2023-03-06T07:14:18.888Z,24.40
2023-03-06T07:16:20.367Z,28.35
2023-03-06T07:18:21.781Z,25.25
2023-03-06T07:20:23.318Z,24.85
2023-03-06T07:22:24.979Z,23.48
2023-03-06T07:24:26.651Z,24.73
2023-03-06T07:26:28.461Z,25.60
2023-03-06T07:28:35.574Z,26.95
2023-03-06T07:30:41.986Z,28.13
2023-03-06T07:32:43.485Z,27.83
2023-03-06T07:34:45.300Z,26.02
2023-03-06T07:36:46.662Z,31.23
2023-03-06T07:38:48.287Z,27.20
2023-03-06T07:40:51.164Z,25.52
2023-03-06T07:43:09.166Z,26.02
2023-03-06T07:45:14.884Z,27.50
2023-03-06T07:47:16.280Z,26.98
2023-03-06T07:49:17.784Z,26.15
2023-03-06T07:51:21.750Z,26.10
2023-03-06T07:53:24.578Z,26.60
2023-03-06T07:55:25.992Z,27.80
2023-03-06T07:57:27.521Z,25.17
2023-03-06T07:59:29.011Z,29.75
2023-03-06T08:01:30.598Z,27.77
2023-03-06T08:03:32.322Z,28.63
2023-03-06T08:05:33.763Z,26.38
2023-03-06T08:07:35.196Z,29.33
2023-03-06T08:09:36.606Z,28.85
2023-03-06T08:11:38.018Z,28.35
2023-03-06T08:13:40.130Z,28.55
2023-03-06T08:15:46.709Z,26.92
2023-03-06T08:17:49.269Z,34.50
2023-03-06T08:19:50.737Z,29.27
2023-03-06T08:21:52.120Z,27.75
2023-03-06T08:23:53.981Z,32.63
2023-03-06T08:26:00.375Z,28.15
2023-03-06T08:28:02.933Z,26.33
2023-03-06T08:30:04.759Z,28.55
2023-03-06T08:32:06.329Z,28.98
2023-03-06T08:34:11.139Z,26.27
2023-03-06T08:36:12.508Z,27.08
2023-03-06T08:38:13.931Z,24.42
2023-03-06T08:40:15.460Z,27.80
2023-03-06T08:42:16.901Z,30.20
2023-03-06T08:44:18.301Z,29.67
2023-03-06T08:46:23.255Z,31.48
2023-03-06T08:48:25.331Z,28.25
2023-03-06T08:50:26.846Z,31.60
2023-03-06T08:52:28.259Z,29.27
2023-03-06T08:54:29.651Z,31.58
2023-03-06T08:56:33.655Z,24.98
2023-03-06T08:58:35.144Z,30.75
2023-03-06T09:00:37.357Z,30.67
2023-03-06T09:02:38.881Z,29.60
2023-03-06T09:04:40.577Z,29.90
2023-03-06T09:06:43.193Z,27.67
2023-03-06T09:08:44.800Z,29.42
2023-03-06T09:10:47.886Z,24.70
2023-03-06T09:12:52.507Z,26.58
2023-03-06T09:14:55.234Z,23.10
2023-03-06T09:16:56.684Z,24.50
2023-03-06T09:18:58.797Z,26.13
2023-03-06T09:21:00.407Z,24.70
2023-03-06T09:23:01.900Z,25.83
2023-03-06T09:25:04.703Z,23.50
2023-03-06T09:27:06.220Z,21.90
2023-03-06T09:29:08.001Z,23.13
2023-03-06T09:31:15.189Z,22.45
2023-03-06T09:35:18.743Z,21.42
2023-03-06T09:37:20.201Z,22.60
2023-03-06T09:39:21.610Z,23.58
2023-03-06T09:41:36.404Z,20.50
2023-03-06T09:43:41.564Z,22.67
2023-03-06T09:45:42.998Z,20.70
2023-03-06T09:47:56.719Z,19.83
2023-03-06T09:50:19.788Z,21.08
2023-03-06T09:52:30.735Z,24.85
2023-03-06T09:55:09.182Z,19.58
2023-03-06T09:57:18.845Z,20.42
2023-03-06T09:59:23.766Z,20.20
2023-03-06T10:01:30.214Z,22.92
2023-03-06T10:03:46.283Z,22.45
2023-03-06T10:05:53.384Z,20.42
2023-03-06T10:08:04.031Z,21.55
2023-03-06T10:10:11.061Z,23.65
2023-03-06T10:12:12.410Z,20.10
2023-03-06T10:14:21.333Z,20.65
2023-03-06T10:16:29.232Z,22.67
2023-03-06T10:18:31.712Z,18.75
2023-03-06T10:21:04.753Z,21.33
2023-03-06T10:23:33.477Z,19.00
2023-03-06T10:25:43.788Z,20.50
2023-03-06T10:27:48.193Z,22.38
2023-03-06T10:30:21.212Z,23.42
2023-03-06T10:32:46.167Z,23.40
2023-03-06T10:34:50.715Z,22.45
2023-03-06T10:36:52.224Z,25.20
2023-03-06T10:38:58.627Z,25.20
2023-03-06T10:41:07.442Z,24.23
2023-03-06T10:43:12.390Z,24.45
2023-03-06T10:45:16.730Z,24.48
2023-03-06T10:47:29.344Z,24.17
2023-03-06T10:49:37.783Z,25.02
2023-03-06T10:51:39.261Z,26.20
2023-03-06T10:53:59.208Z,25.38
2023-03-06T10:56:01.272Z,25.73
2023-03-06T10:58:37.320Z,26.38
2023-03-06T11:00:38.771Z,27.45
2023-03-06T11:02:41.072Z,27.77
2023-03-06T11:04:47.185Z,31.65
2023-03-06T11:06:49.022Z,25.77
2023-03-06T11:08:50.420Z,30.33
2023-03-06T11:11:04.442Z,30.92
2023-03-06T11:13:21.460Z,30.30
2023-03-06T11:15:27.098Z,29.50
2023-03-06T11:17:30.868Z,35.13
2023-03-06T11:19:33.139Z,33.20
2023-03-06T11:21:36.783Z,32.45
2023-03-06T11:23:43.034Z,31.00
2023-03-06T11:25:53.880Z,33.08
2023-03-06T11:28:16.052Z,30.27
2023-03-06T11:30:26.448Z,30.02
2023-03-06T11:32:30.951Z,30.10
2023-03-06T11:34:41.605Z,30.55
2023-03-06T11:36:54.804Z,28.30
2023-03-06T11:38:56.308Z,29.55
2023-03-06T11:41:01.225Z,27.20
2023-03-06T11:43:23.225Z,26.65
2023-03-06T11:45:32.692Z,23.92
2023-03-06T11:48:01.679Z,25.55
2023-03-06T11:50:22.779Z,27.13
2023-03-06T11:52:30.669Z,23.05
2023-03-06T11:54:33.521Z,22.15
2023-03-06T11:56:37.647Z,19.77
2023-03-06T11:59:03.455Z,16.35
2023-03-06T12:01:46.138Z,17.90
2023-03-06T12:04:18.325Z,12.13
2023-03-06T12:08:54.710Z,8.55
2023-03-06T12:11:29.671Z,14.48
2023-03-06T12:14:10.369Z,9.23
2023-03-06T12:16:30.125Z,9.40
2023-03-06T12:21:04.249Z,9.73
2023-03-06T12:23:34.577Z,8.95
2023-03-06T12:26:23.856Z,12.85
2023-03-06T12:28:51.368Z,14.93
2023-03-06T12:31:24.885Z,12.55
2023-03-06T12:33:42.519Z,19.10
2023-03-06T12:35:59.952Z,19.80
2023-03-06T12:38:11.392Z,21.25
2023-03-06T12:40:35.027Z,22.80
2023-03-06T12:43:06.070Z,21.55
2023-03-06T12:45:21.864Z,22.00
2023-03-06T12:47:27.772Z,22.60
2023-03-06T12:49:33.305Z,19.90
2023-03-06T12:51:35.723Z,17.88
2023-03-06T12:53:38.042Z,19.35
2023-03-06T12:55:45.982Z,14.70
2023-03-06T12:57:48.732Z,15.82
2023-03-06T12:59:50.688Z,14.50
2023-03-06T13:02:29.869Z,14.63
2023-03-06T13:05:00.082Z,10.05
2023-03-06T13:07:46.641Z,11.07
2023-03-06T13:10:06.354Z,13.68
2023-03-06T13:14:54.624Z,16.52
2023-03-06T13:17:22.552Z,17.27
2023-03-06T13:19:25.856Z,16.30
2023-03-06T13:21:42.542Z,13.52
2023-03-06T13:23:50.752Z,13.70
2023-03-06T13:25:52.229Z,14.00
2023-03-06T13:27:53.578Z,13.57
2023-03-06T13:30:05.397Z,14.00
2023-03-06T13:32:17.937Z,14.65
2023-03-06T13:34:31.202Z,11.13
2023-03-06T13:36:39.593Z,14.00
2023-03-06T13:38:41.095Z,11.40
2023-03-06T13:40:42.531Z,13.07
2023-03-06T13:42:43.849Z,13.30
2023-03-06T13:44:45.927Z,11.07
2023-03-06T13:47:05.593Z,12.15
2023-03-06T13:51:23.948Z,17.40
2023-03-06T13:53:46.572Z,15.52
2023-03-06T13:56:31.117Z,12.45
2023-03-06T13:58:32.538Z,14.38
2023-03-06T14:00:33.862Z,12.90
2023-03-06T14:02:35.258Z,13.02
2023-03-06T14:04:45.250Z,13.73
2023-03-06T14:06:52.781Z,13.05
2023-03-06T14:08:54.514Z,13.38
2023-03-06T14:11:06.655Z,11.35
2023-03-06T14:13:18.318Z,14.55
2023-03-06T14:15:28.250Z,13.00
2023-03-06T14:17:32.689Z,12.18
2023-03-06T14:19:38.382Z,12.35
2023-03-06T14:21:47.631Z,12.93
2023-03-06T14:24:00.528Z,12.52
2023-03-06T14:26:17.309Z,48.08
2023-03-06T14:28:30.147Z,22.77
2023-03-06T14:30:31.584Z,13.95
2023-03-06T14:32:33.106Z,12.15
2023-03-06T14:34:45.427Z,12.80
2023-03-06T14:36:49.721Z,11.50
2023-03-06T14:39:00.944Z,11.25
2023-03-06T14:41:04.807Z,13.70
2023-03-06T14:43:21.088Z,12.52
2023-03-06T14:45:24.330Z,12.73
2023-03-06T14:47:27.637Z,11.77
2023-03-06T14:49:29.109Z,10.27
2023-03-06T14:51:33.214Z,16.02
2023-03-06T14:53:35.312Z,16.85
2023-03-06T14:55:37.264Z,10.25
2023-03-06T14:57:38.867Z,8.98
2023-03-06T14:59:47.822Z,10.70
2023-03-06T15:01:52.083Z,9.65
2023-03-06T15:03:56.582Z,7.40
2023-03-06T15:05:58.267Z,7.20
2023-03-06T15:08:04.123Z,7.18
2023-03-06T15:10:10.379Z,8.57
2023-03-06T15:12:21.125Z,7.40
2023-03-06T15:14:40.269Z,7.72
2023-03-06T15:16:41.799Z,6.97
2023-03-06T15:18:56.197Z,8.00
2023-03-06T15:21:18.325Z,7.28
2023-03-06T15:23:26.268Z,9.82
2023-03-06T15:25:31.584Z,10.10
2023-03-06T15:27:33.077Z,11.35
2023-03-06T15:29:38.901Z,14.00
2023-03-06T15:31:42.239Z,13.77
2023-03-06T15:33:43.832Z,10.43
2023-03-06T15:36:01.948Z,14.32
2023-03-06T15:38:22.123Z,14.07
2023-03-06T15:40:26.757Z,11.77
2023-03-06T15:42:28.832Z,13.27
2023-03-06T15:44:32.402Z,12.20
2023-03-06T15:46:33.846Z,15.77
2023-03-06T15:48:35.530Z,13.95
2023-03-06T15:50:37.040Z,12.63
2023-03-06T15:52:38.444Z,12.30
2023-03-06T15:54:39.889Z,13.80
2023-03-06T15:56:44.239Z,13.30
2023-03-06T15:58:45.818Z,13.43
2023-03-06T16:00:47.272Z,12.60
2023-03-06T16:02:48.683Z,13.63
2023-03-06T16:04:51.122Z,14.68
2023-03-06T16:06:52.511Z,13.27
2023-03-06T16:08:53.923Z,13.93
2023-03-06T16:10:55.327Z,15.00
2023-03-06T16:13:02.822Z,15.10
2023-03-06T16:15:12.768Z,14.57
2023-03-06T16:17:14.911Z,14.35
2023-03-06T16:19:27.172Z,15.52
2023-03-06T16:21:29.205Z,21.42
2023-03-06T16:23:30.673Z,25.63
2023-03-06T16:25:32.349Z,17.75
2023-03-06T16:27:33.716Z,16.27
2023-03-06T16:29:35.564Z,16.02
2023-03-06T16:31:36.930Z,17.60
2023-03-06T16:33:38.315Z,16.48
2023-03-06T16:35:41.103Z,18.05
2023-03-06T16:37:42.843Z,17.10
2023-03-06T16:39:44.261Z,16.15
2023-03-06T16:41:49.435Z,16.33
2023-03-06T16:43:50.946Z,16.65
2023-03-06T16:45:52.420Z,15.25
2023-03-06T16:47:54.407Z,15.52
2023-03-06T16:49:58.203Z,16.02
2023-03-06T16:52:00.499Z,16.75
2023-03-06T16:54:01.898Z,14.95
2023-03-06T16:56:03.450Z,15.88
2023-03-06T16:58:05.073Z,15.88
2023-03-06T17:00:08.002Z,12.57
2023-03-06T17:02:11.119Z,14.02
2023-03-06T17:04:12.546Z,18.98
2023-03-06T17:06:19.510Z,14.52
2023-03-06T17:08:20.967Z,12.98
2023-03-06T17:10:26.184Z,14.98
2023-03-06T17:12:27.603Z,16.48
2023-03-06T17:14:29.772Z,18.33
2023-03-06T17:16:31.273Z,16.30
2023-03-06T17:18:32.940Z,18.63
2023-03-06T17:20:34.351Z,19.40
2023-03-06T17:22:36.591Z,18.63
2023-03-06T17:24:37.991Z,46.88
2023-03-06T17:26:40.132Z,110.38
2023-03-06T17:28:41.933Z,20.05
2023-03-06T17:30:43.665Z,18.40
2023-03-06T17:32:45.026Z,18.70
2023-03-06T17:34:46.450Z,18.60
2023-03-06T17:36:47.912Z,19.15
2023-03-06T17:38:49.708Z,19.65
2023-03-06T17:40:51.167Z,18.40
2023-03-06T17:42:52.550Z,19.48
2023-03-06T17:44:53.970Z,21.63
2023-03-06T17:46:55.445Z,23.17
2023-03-06T17:48:56.814Z,20.58
2023-03-06T17:50:58.939Z,23.20
2023-03-06T17:53:00.389Z,21.42
2023-03-06T17:55:01.825Z,23.00
2023-03-06T17:57:05.297Z,20.63
2023-03-06T17:59:06.670Z,22.20
2023-03-06T18:01:13.176Z,22.40
2023-03-06T18:03:14.639Z,23.50
2023-03-06T18:05:17.973Z,21.98
2023-03-06T18:07:19.425Z,20.48
2023-03-06T18:09:20.905Z,21.75
2023-03-06T18:11:22.948Z,23.10
2023-03-06T18:13:24.510Z,21.10
2023-03-06T18:15:25.934Z,21.75
2023-03-06T18:17:27.319Z,21.80
2023-03-06T18:19:28.726Z,25.35
2023-03-06T18:21:30.238Z,19.17
2023-03-06T18:23:31.873Z,20.23
2023-03-06T18:25:33.346Z,18.42
2023-03-06T18:27:35.871Z,21.17
2023-03-06T18:29:37.251Z,24.27
2023-03-06T18:31:41.295Z,22.85
2023-03-06T18:33:42.954Z,25.05
2023-03-06T18:35:44.708Z,18.13
2023-03-06T18:37:46.125Z,21.83
2023-03-06T18:39:47.815Z,21.75
2023-03-06T18:41:49.317Z,22.00
2023-03-06T18:43:52.735Z,20.88
2023-03-06T18:45:57.720Z,20.05
2023-03-06T18:47:59.430Z,21.25
2023-03-06T18:50:02.652Z,23.75
2023-03-06T18:52:04.294Z,21.35
2023-03-06T18:54:06.193Z,23.52
2023-03-06T18:56:10.492Z,18.73
2023-03-06T18:58:11.887Z,21.42
2023-03-06T19:00:13.612Z,23.38
2023-03-06T19:02:15.050Z,21.95
2023-03-06T19:04:16.662Z,21.90
2023-03-06T19:06:18.390Z,26.90
2023-03-06T19:08:19.814Z,21.77
2023-03-06T19:10:21.267Z,24.60
2023-03-06T19:12:23.382Z,20.35
2023-03-06T19:14:24.931Z,25.13
2023-03-06T19:16:28.613Z,21.45
2023-03-06T19:18:30.359Z,23.40
2023-03-06T19:20:31.765Z,23.50
2023-03-06T19:22:36.726Z,22.55
2023-03-06T19:24:38.121Z,23.17
2023-03-06T19:26:41.292Z,26.58
2023-03-06T19:28:43.033Z,21.35
2023-03-06T19:30:44.420Z,23.08
2023-03-06T19:32:45.996Z,20.48
2023-03-06T19:34:48.737Z,24.08
2023-03-06T19:36:50.560Z,26.17
2023-03-06T19:38:56.441Z,23.15
2023-03-06T19:40:57.881Z,27.60
2023-03-06T19:42:59.400Z,24.25
2023-03-06T19:45:00.770Z,26.17
2023-03-06T19:47:02.186Z,26.45
2023-03-06T19:49:09.875Z,27.42
2023-03-06T19:51:11.809Z,27.50
2023-03-06T19:53:13.717Z,26.27
2023-03-06T19:55:15.181Z,23.05
2023-03-06T19:57:17.097Z,25.48
2023-03-06T19:59:19.026Z,25.70
2023-03-06T20:01:22.836Z,23.92
2023-03-06T20:03:24.266Z,23.15
2023-03-06T20:05:25.757Z,23.25
2023-03-06T20:07:27.193Z,24.73
2023-03-06T20:09:28.763Z,20.42
2023-03-06T20:11:30.428Z,27.88
2023-03-06T20:13:32.094Z,21.58
2023-03-06T20:15:35.053Z,20.30
2023-03-06T20:17:40.326Z,26.60
2023-03-06T20:19:41.878Z,25.85
2023-03-06T20:21:43.309Z,24.35
2023-03-06T20:23:44.709Z,20.95
2023-03-06T20:25:46.114Z,21.58
2023-03-06T20:27:47.528Z,24.25
2023-03-06T20:29:48.917Z,21.85
2023-03-06T20:31:58.388Z,25.08
2023-03-06T20:34:00.532Z,22.15
2023-03-06T20:36:02.696Z,24.92
2023-03-06T20:38:04.165Z,24.52
2023-03-06T20:40:06.356Z,21.48
2023-03-06T20:42:07.802Z,24.50
2023-03-06T20:44:13.523Z,22.65
2023-03-06T20:46:15.818Z,21.90
2023-03-06T20:48:17.428Z,18.95
2023-03-06T20:50:18.893Z,25.52
2023-03-06T20:52:20.313Z,23.40
2023-03-06T20:54:21.749Z,26.90
2023-03-06T20:56:26.544Z,29.60
2023-03-06T20:58:30.153Z,24.63
2023-03-06T21:00:31.652Z,23.35
2023-03-06T21:02:33.077Z,22.35
2023-03-06T21:04:34.682Z,21.75
2023-03-06T21:06:37.200Z,21.70
2023-03-06T21:08:38.574Z,23.45
2023-03-06T21:10:40.049Z,20.52
2023-03-06T21:12:41.490Z,23.10
2023-03-06T21:14:42.950Z,23.20
2023-03-06T21:16:44.511Z,21.65
2023-03-06T21:18:46.560Z,25.08
2023-03-06T21:20:48.044Z,21.98
2023-03-06T21:22:49.574Z,22.73
2023-03-06T21:24:51.010Z,21.77
2023-03-06T21:26:52.432Z,19.80
2023-03-06T21:28:54.347Z,22.88
2023-03-06T21:30:56.093Z,23.45
2023-03-06T21:32:57.566Z,21.08
2023-03-06T21:34:59.043Z,19.55
2023-03-06T21:37:00.691Z,23.02
2023-03-06T21:39:06.072Z,22.50
2023-03-06T21:41:19.724Z,23.67
2023-03-06T21:43:21.305Z,25.63
2023-03-06T21:45:22.766Z,23.70
2023-03-06T21:47:24.306Z,20.38
2023-03-06T21:49:26.167Z,20.92
2023-03-06T21:51:27.870Z,22.38
2023-03-06T21:53:29.254Z,19.52
2023-03-06T21:55:30.738Z,21.15
2023-03-06T21:57:32.651Z,21.45
2023-03-06T21:59:34.089Z,21.83
2023-03-06T22:01:35.518Z,19.30
2023-03-06T22:03:37.064Z,22.08
2023-03-06T22:05:38.414Z,21.33
2023-03-06T22:07:40.322Z,21.95
2023-03-06T22:09:41.700Z,24.20
2023-03-06T22:11:43.174Z,22.48
2023-03-06T22:13:45.463Z,20.80
2023-03-06T22:15:53.472Z,21.77
2023-03-06T22:17:54.914Z,19.63
2023-03-06T22:19:56.367Z,21.70
2023-03-06T22:21:57.780Z,22.08
2023-03-06T22:24:00.420Z,25.35
2023-03-06T22:26:04.087Z,23.08
2023-03-06T22:28:05.764Z,23.35
2023-03-06T22:30:07.951Z,19.92
2023-03-06T22:32:09.457Z,18.77
2023-03-06T22:34:11.179Z,21.75
2023-03-06T22:36:14.906Z,21.70
2023-03-06T22:38:16.418Z,25.08
2023-03-06T22:40:17.931Z,19.60
2023-03-06T22:42:19.354Z,20.55
2023-03-06T22:44:20.794Z,23.63
2023-03-06T22:46:22.222Z,19.38
2023-03-06T22:48:23.658Z,20.35
2023-03-06T22:50:25.055Z,19.88
2023-03-06T22:52:26.420Z,19.83
2023-03-06T22:54:27.912Z,22.38
2023-03-06T22:56:29.348Z,21.75
2023-03-06T22:58:35.504Z,20.52
2023-03-06T23:00:37.143Z,21.88
2023-03-06T23:02:38.767Z,20.00
2023-03-06T23:04:40.180Z,20.58
2023-03-06T23:06:43.124Z,21.73
2023-03-06T23:08:49.453Z,18.42
2023-03-06T23:10:50.859Z,17.23
2023-03-06T23:12:52.589Z,23.27
2023-03-06T23:14:54.157Z,18.50
2023-03-06T23:16:55.584Z,20.17
2023-03-06T23:18:57.019Z,19.60
2023-03-06T23:20:58.863Z,21.73
2023-03-06T23:23:00.274Z,17.35
2023-03-06T23:25:01.882Z,19.95
2023-03-06T23:27:04.679Z,20.45
2023-03-06T23:29:06.066Z,17.70
2023-03-06T23:31:16.864Z,20.27
2023-03-06T23:33:18.350Z,18.00
2023-03-06T23:35:19.943Z,19.58
2023-03-06T23:37:21.391Z,18.52
2023-03-06T23:39:22.780Z,22.33
2023-03-06T23:41:24.843Z,22.40
2023-03-06T23:43:26.260Z,21.10
2023-03-06T23:45:27.729Z,21.13
2023-03-06T23:47:33.253Z,23.73
2023-03-06T23:49:34.901Z,22.63
2023-03-06T23:51:36.343Z,23.25
2023-03-06T23:53:37.770Z,22.33
2023-03-06T23:55:43.319Z,22.02
2023-03-06T23:57:44.885Z,23.08
2023-03-06T23:59:46.247Z,20.90
